Opp, AL (36467)

5:08 AM CST on February 07, 2016 (GMT -0600)
Opp Cablevision Headend | | Change Station
CLOSE
Current Station
Personal Weather Station
Location: Opp, AL
Elevation: 327 ft
Nearby Weather Stations

Elev 327 ft 31.29 °N, 86.26 °W | Updated 8 seconds ago

Clear
Clear
36.2 °F
Feels Like 36 °F
N
0.0
Wind Variable Wind from West
Gusts 2.0 mph

Today
High -- | Low -- °F
--% Chance of Precip.
Yesterday
High -- | Low -- °F
Precip. -- in
Pressure 30.19 in
Visibility 10.0 miles
Clouds Clear
Windchill 36 °F
Dew Point 26 °F
Humidity 67%
Rainfall 0.00 in
Snow Depth Not available.
6:33 AM 5:25 PM
Waning Crescent, 2% visible
METAR K79J 071056Z AUTO 36006KT 10SM CLR 02/M04 A3019 RMK AO2 SLP223 T00221044
Pressure 30.19 in
Visibility 10.0 miles
Clouds Clear
Windchill 36 °F
Dew Point 26 °F
Humidity 67%
Rainfall 0.00 in
Snow Depth Not available.
6:33 AM 5:25 PM
Waning Crescent, 2% visible
METAR K79J 071056Z AUTO 36006KT 10SM CLR 02/M04 A3019 RMK AO2 SLP223 T00221044

10-Day Weather Forecast

Almanac

Astronomy

Feb. 07, 2016 Rise Set
Actual Time
Civil Twilight
Nautical Twilight
Astronomical Twilight
Moon
Length of Visible Light
Length of Day
Tomorrow will be .
, % of the Moon is Illuminated

Today's Extremes

State Highs State Lows

Community

WunderPhotos

Upload Photos

1,891,170 photos uploaded!

WunderBlog® & News

Nearby

Air Quality

  Air Quality AQ Index Pollutant
Not available.

Snow Depth

Station Depth Elevation

Earthquake Activity

City Distance Mag. Time & Date
Minimum magnitude displayed is 2.5.

Coastal Water Temperatures

Place Temperature

Stations

Nearby Weather Stations

Station Location Temp. Windchill Dew Point Humidity Wind Precip. Elev Updated Type
                   

Watches & Warnings

There are currently no watches in effect.